createdAt,value
2023-05-14T00:01:28.658Z,18.90
2023-05-14T00:03:55.349Z,18.90
2023-05-14T00:06:21.975Z,18.80
2023-05-14T00:08:48.550Z,18.90
2023-05-14T00:11:16.050Z,18.90
2023-05-14T00:13:42.644Z,18.90
2023-05-14T00:16:09.299Z,18.80
2023-05-14T00:18:35.978Z,18.80
2023-05-14T00:21:03.053Z,18.80
2023-05-14T00:23:29.689Z,18.70
2023-05-14T00:25:56.352Z,18.70
2023-05-14T00:28:22.927Z,18.70
2023-05-14T00:30:49.519Z,18.80
2023-05-14T00:33:16.210Z,18.80
2023-05-14T00:35:43.263Z,18.80
2023-05-14T00:38:16.688Z,18.70
2023-05-14T00:40:45.721Z,18.70
2023-05-14T00:43:12.592Z,18.60
2023-05-14T00:45:39.406Z,18.60
2023-05-14T00:48:06.516Z,18.60
2023-05-14T00:50:34.538Z,18.60
2023-05-14T00:53:01.236Z,18.60
2023-05-14T00:55:30.643Z,18.70
2023-05-14T00:57:58.788Z,18.70
2023-05-14T01:00:25.941Z,18.70
2023-05-14T01:02:52.930Z,18.70
2023-05-14T01:05:19.992Z,18.70
2023-05-14T01:07:54.316Z,18.60
2023-05-14T01:10:42.106Z,18.60
2023-05-14T01:13:18.420Z,18.60
2023-05-14T01:15:47.272Z,18.60
2023-05-14T01:18:18.159Z,18.60
2023-05-14T01:20:45.395Z,18.60
2023-05-14T01:23:11.987Z,18.60
2023-05-14T01:25:38.714Z,18.60
2023-05-14T01:28:14.455Z,18.60
2023-05-14T01:30:56.942Z,18.50
2023-05-14T01:33:26.082Z,18.50
2023-05-14T01:35:54.104Z,18.50
2023-05-14T01:38:22.974Z,18.50
2023-05-14T01:40:50.780Z,18.40
2023-05-14T01:43:18.440Z,18.40
2023-05-14T01:45:45.250Z,18.40
2023-05-14T01:48:12.515Z,18.30
2023-05-14T01:50:39.277Z,18.40
2023-05-14T01:53:06.411Z,18.40
2023-05-14T01:55:33.060Z,18.40
2023-05-14T01:57:59.787Z,18.40
2023-05-14T02:00:27.169Z,18.40
2023-05-14T02:02:54.033Z,18.40
2023-05-14T02:05:21.083Z,18.40
2023-05-14T02:07:47.740Z,18.30
2023-05-14T02:10:14.410Z,18.30
2023-05-14T02:12:41.166Z,18.20
2023-05-14T02:15:10.772Z,18.20
2023-05-14T02:17:37.536Z,18.20
2023-05-14T02:20:04.772Z,18.20
2023-05-14T02:22:31.595Z,18.20
2023-05-14T02:24:58.266Z,18.20
2023-05-14T02:27:24.883Z,18.30
2023-05-14T02:29:51.533Z,18.30
2023-05-14T02:32:18.257Z,18.30
2023-05-14T02:34:45.209Z,18.30
2023-05-14T02:37:11.835Z,18.30
2023-05-14T02:39:38.421Z,18.30
2023-05-14T02:42:06.947Z,18.30
2023-05-14T02:44:33.639Z,18.20
2023-05-14T02:47:00.470Z,18.20
2023-05-14T02:49:27.214Z,18.20
2023-05-14T02:51:54.363Z,18.20
2023-05-14T02:54:21.101Z,18.20
2023-05-14T02:56:47.778Z,18.20
2023-05-14T02:59:14.390Z,18.20
2023-05-14T03:01:41.702Z,18.10
2023-05-14T03:04:08.855Z,18.10
2023-05-14T03:06:35.486Z,18.10
2023-05-14T03:09:02.181Z,18.10
2023-05-14T03:11:28.890Z,18.10
2023-05-14T03:13:55.632Z,18.00
2023-05-14T03:16:22.580Z,18.00
2023-05-14T03:18:49.686Z,17.90
2023-05-14T03:21:16.370Z,17.90
2023-05-14T03:23:43.205Z,17.90
2023-05-14T03:26:09.854Z,17.90
2023-05-14T03:28:36.441Z,17.80
2023-05-14T03:31:03.122Z,17.90
2023-05-14T03:33:31.068Z,17.90
2023-05-14T03:35:57.695Z,17.90
2023-05-14T03:38:24.300Z,17.90
2023-05-14T03:40:50.905Z,17.90
2023-05-14T03:43:17.586Z,17.80
2023-05-14T03:45:44.363Z,17.80
2023-05-14T03:48:11.304Z,17.80
2023-05-14T03:50:38.406Z,17.80
2023-05-14T03:53:06.175Z,17.70
2023-05-14T03:55:32.808Z,17.70
2023-05-14T03:57:59.397Z,17.80
2023-05-14T04:00:26.423Z,17.80
2023-05-14T04:02:53.313Z,17.80
2023-05-14T04:05:23.064Z,17.80
2023-05-14T04:07:49.941Z,17.80
2023-05-14T04:10:16.575Z,17.70
2023-05-14T04:12:43.256Z,17.80
2023-05-14T04:15:10.451Z,17.80
2023-05-14T04:17:37.206Z,17.80
2023-05-14T04:20:04.306Z,17.80
2023-05-14T04:22:31.956Z,17.80
2023-05-14T04:24:58.534Z,17.80
2023-05-14T04:27:25.207Z,17.80
2023-05-14T04:29:51.961Z,17.80
2023-05-14T04:32:18.666Z,17.80
2023-05-14T04:34:46.747Z,17.90
2023-05-14T04:37:13.919Z,17.80
2023-05-14T04:39:40.497Z,17.80
2023-05-14T04:42:07.745Z,17.90
2023-05-14T04:44:35.352Z,17.90
2023-05-14T04:47:02.672Z,17.90
2023-05-14T04:49:30.233Z,17.90
2023-05-14T04:51:56.877Z,17.90
2023-05-14T04:54:23.538Z,17.80
2023-05-14T04:56:50.744Z,17.90
2023-05-14T04:59:17.507Z,17.90
2023-05-14T05:01:45.164Z,17.90
2023-05-14T05:04:11.888Z,17.90
2023-05-14T05:06:38.474Z,17.80
2023-05-14T05:09:05.059Z,17.80
2023-05-14T05:11:31.685Z,17.80
2023-05-14T05:13:58.294Z,17.80
2023-05-14T05:16:24.948Z,17.80
2023-05-14T05:18:51.620Z,17.80
2023-05-14T05:21:18.313Z,17.80
2023-05-14T05:23:44.916Z,17.90
2023-05-14T05:26:11.537Z,17.90
2023-05-14T05:28:38.145Z,17.90
2023-05-14T05:31:05.207Z,17.90
2023-05-14T05:33:31.879Z,18.00
2023-05-14T05:35:58.465Z,18.00
2023-05-14T05:38:25.060Z,18.10
2023-05-14T05:40:52.222Z,18.10
2023-05-14T05:43:18.828Z,18.10
2023-05-14T05:45:45.996Z,18.10
2023-05-14T05:48:12.804Z,18.10
2023-05-14T05:50:41.403Z,18.20
2023-05-14T05:53:08.260Z,18.20
2023-05-14T05:55:35.063Z,18.30
2023-05-14T05:58:01.875Z,18.20
2023-05-14T06:00:28.850Z,18.30
2023-05-14T06:02:56.502Z,18.30
2023-05-14T06:05:23.909Z,18.20
2023-05-14T06:07:50.938Z,18.30
2023-05-14T06:10:17.706Z,18.30
2023-05-14T06:12:44.503Z,18.30
2023-05-14T06:15:12.812Z,18.30
2023-05-14T06:17:39.534Z,18.30
2023-05-14T06:20:07.907Z,18.40
2023-05-14T06:22:34.893Z,18.40
2023-05-14T06:25:01.865Z,18.40
2023-05-14T06:27:28.793Z,18.50
2023-05-14T06:29:55.857Z,18.40
2023-05-14T06:32:23.052Z,18.50
2023-05-14T06:34:53.371Z,18.50
2023-05-14T06:37:20.345Z,18.50
2023-05-14T06:39:50.173Z,18.60
2023-05-14T06:42:17.801Z,18.60
2023-05-14T06:44:45.301Z,18.60
2023-05-14T06:47:12.168Z,18.60
2023-05-14T06:49:39.389Z,18.60
2023-05-14T06:52:06.666Z,18.70
2023-05-14T06:54:33.948Z,18.80
2023-05-14T06:57:00.824Z,18.80
2023-05-14T06:59:27.875Z,18.80
2023-05-14T07:01:54.712Z,18.80
2023-05-14T07:04:21.619Z,18.80
2023-05-14T07:06:48.494Z,18.80
2023-05-14T07:09:16.474Z,18.90
2023-05-14T07:11:43.434Z,18.90
2023-05-14T07:14:10.684Z,18.90
2023-05-14T07:16:40.150Z,19.00
2023-05-14T07:19:07.162Z,19.00
2023-05-14T07:21:35.681Z,19.10
2023-05-14T07:24:02.558Z,19.10
2023-05-14T07:26:32.678Z,19.10
2023-05-14T07:29:01.580Z,19.10
2023-05-14T07:31:31.298Z,19.10
2023-05-14T07:33:58.110Z,19.10
2023-05-14T07:36:24.988Z,19.20
2023-05-14T07:38:54.498Z,19.20
2023-05-14T07:41:24.433Z,19.20
2023-05-14T07:43:51.356Z,19.30
2023-05-14T07:46:20.963Z,19.30
2023-05-14T07:48:47.659Z,19.30
2023-05-14T07:51:14.383Z,19.30
2023-05-14T07:53:41.120Z,19.40
2023-05-14T07:56:11.026Z,19.40
2023-05-14T07:58:37.845Z,19.40
2023-05-14T08:01:07.085Z,19.50
2023-05-14T08:03:34.245Z,19.50
2023-05-14T08:06:01.123Z,19.60
2023-05-14T08:08:27.777Z,19.60
2023-05-14T08:10:54.501Z,19.60
2023-05-14T08:13:21.368Z,19.60
2023-05-14T08:15:49.251Z,19.60
2023-05-14T08:18:15.921Z,19.70
2023-05-14T08:20:42.604Z,19.70
2023-05-14T08:23:09.539Z,19.70
2023-05-14T08:25:36.272Z,19.70
2023-05-14T08:28:02.932Z,19.70
2023-05-14T08:30:29.546Z,19.80
2023-05-14T08:32:56.221Z,19.80
2023-05-14T08:35:22.869Z,19.80
2023-05-14T08:37:50.242Z,19.80
2023-05-14T08:40:17.207Z,19.80
2023-05-14T08:42:44.950Z,19.80
2023-05-14T08:45:25.517Z,19.80
2023-05-14T08:47:52.574Z,19.80
2023-05-14T08:50:23.653Z,19.80
2023-05-14T08:52:51.545Z,19.80
2023-05-14T08:55:18.786Z,19.90
2023-05-14T08:57:46.329Z,19.90
2023-05-14T09:00:14.161Z,20.00
2023-05-14T09:02:41.733Z,20.00
2023-05-14T09:05:12.344Z,20.00
2023-05-14T09:07:39.159Z,20.00
2023-05-14T09:10:06.598Z,20.00
2023-05-14T09:12:33.270Z,20.10
2023-05-14T09:14:59.851Z,20.30
2023-05-14T09:17:27.627Z,20.30
2023-05-14T09:19:54.464Z,20.20
2023-05-14T09:22:21.361Z,20.10
2023-05-14T09:25:04.891Z,20.10
2023-05-14T09:27:33.004Z,20.10
2023-05-14T09:30:17.687Z,20.20
2023-05-14T09:32:45.717Z,20.40
2023-05-14T09:35:22.490Z,20.40
2023-05-14T09:37:53.303Z,20.50
2023-05-14T09:40:21.715Z,20.50
2023-05-14T09:42:49.416Z,20.50
2023-05-14T09:45:16.847Z,20.50
2023-05-14T09:47:44.954Z,20.60
2023-05-14T09:50:12.270Z,20.60
2023-05-14T09:52:39.268Z,20.70
2023-05-14T09:55:06.547Z,20.60
2023-05-14T09:57:33.655Z,20.50
2023-05-14T10:00:00.488Z,20.70
2023-05-14T10:02:37.473Z,20.80
2023-05-14T10:05:06.269Z,20.80
2023-05-14T10:07:48.528Z,21.10
2023-05-14T10:10:24.028Z,21.00
2023-05-14T10:12:58.613Z,20.90
2023-05-14T10:15:43.411Z,20.90
2023-05-14T10:18:12.613Z,20.70
2023-05-14T10:20:41.171Z,20.70
2023-05-14T10:23:07.997Z,20.80
2023-05-14T10:25:36.377Z,20.80
2023-05-14T10:28:04.096Z,20.90
2023-05-14T10:30:32.034Z,21.00
2023-05-14T10:33:11.313Z,21.40
2023-05-14T10:35:57.883Z,21.70
2023-05-14T10:38:35.703Z,21.60
2023-05-14T10:41:07.677Z,21.50
2023-05-14T10:43:39.475Z,21.60
2023-05-14T10:46:07.938Z,21.30
2023-05-14T10:48:36.531Z,21.30
2023-05-14T10:51:03.336Z,21.50
2023-05-14T10:53:41.086Z,21.80
2023-05-14T10:56:13.271Z,21.80
2023-05-14T10:58:44.539Z,21.60
2023-05-14T11:01:15.730Z,21.20
2023-05-14T11:03:45.066Z,21.10
2023-05-14T11:06:16.340Z,21.10
2023-05-14T11:08:44.380Z,21.30
2023-05-14T11:11:13.902Z,21.30
2023-05-14T11:13:42.567Z,21.30
2023-05-14T11:16:21.516Z,21.30
2023-05-14T11:19:01.756Z,21.20
2023-05-14T11:21:29.288Z,21.10
2023-05-14T11:23:56.885Z,21.00
2023-05-14T11:26:24.162Z,21.20
2023-05-14T11:28:50.936Z,21.10
2023-05-14T11:31:17.972Z,21.10
2023-05-14T11:33:44.851Z,21.10
2023-05-14T11:36:12.434Z,21.10
2023-05-14T11:38:50.498Z,20.90
2023-05-14T11:41:17.188Z,21.00
2023-05-14T11:43:44.027Z,21.10
2023-05-14T11:46:18.029Z,21.10
2023-05-14T11:48:44.824Z,21.30
2023-05-14T11:51:11.492Z,21.20
2023-05-14T11:53:38.101Z,21.10
2023-05-14T11:56:05.664Z,20.90
2023-05-14T11:58:33.918Z,20.80
2023-05-14T12:01:00.709Z,20.90
2023-05-14T12:03:29.657Z,20.90
2023-05-14T12:05:57.203Z,21.00
2023-05-14T12:08:28.082Z,21.00
2023-05-14T12:10:55.399Z,21.20
2023-05-14T12:13:25.315Z,21.20
2023-05-14T12:15:57.982Z,21.20
2023-05-14T12:18:25.673Z,21.20
2023-05-14T12:20:52.417Z,21.10
2023-05-14T12:23:29.717Z,21.40
2023-05-14T12:26:06.394Z,21.60
2023-05-14T12:28:36.871Z,21.60
2023-05-14T12:31:04.820Z,21.60
2023-05-14T12:33:31.435Z,21.50
2023-05-14T12:36:09.945Z,21.50
2023-05-14T12:38:46.880Z,21.40
2023-05-14T12:41:13.500Z,21.50
2023-05-14T12:43:43.618Z,21.60
2023-05-14T12:46:10.761Z,21.60
2023-05-14T12:48:37.375Z,21.70
2023-05-14T12:51:04.042Z,21.80
2023-05-14T12:53:30.651Z,21.80
2023-05-14T12:55:57.375Z,21.70
2023-05-14T12:58:23.985Z,21.70
2023-05-14T13:00:50.614Z,21.50
2023-05-14T13:03:17.484Z,21.60
2023-05-14T13:05:44.231Z,22.00
2023-05-14T13:08:10.902Z,22.20
2023-05-14T13:10:37.551Z,22.20
2023-05-14T13:13:04.286Z,22.20
2023-05-14T13:15:32.398Z,22.40
2023-05-14T13:17:59.349Z,22.20
2023-05-14T13:20:27.473Z,22.10
2023-05-14T13:22:54.086Z,22.10
2023-05-14T13:25:20.909Z,22.20
2023-05-14T13:27:50.660Z,21.80
2023-05-14T13:30:18.374Z,21.50
2023-05-14T13:32:45.403Z,21.20
2023-05-14T13:35:12.774Z,21.20
2023-05-14T13:37:39.458Z,21.50
2023-05-14T13:40:09.638Z,21.70
2023-05-14T13:42:37.422Z,21.60
2023-05-14T13:45:04.400Z,21.90
2023-05-14T13:47:31.216Z,21.80
2023-05-14T13:49:58.138Z,21.50
2023-05-14T13:52:24.803Z,21.20
2023-05-14T13:54:51.439Z,21.00
2023-05-14T13:57:18.024Z,20.90
2023-05-14T13:59:46.518Z,20.90
2023-05-14T14:02:13.292Z,20.80
2023-05-14T14:04:39.976Z,20.90
2023-05-14T14:07:06.632Z,20.80
2023-05-14T14:09:35.824Z,20.80
2023-05-14T14:12:06.459Z,20.80
2023-05-14T14:14:33.139Z,20.70
2023-05-14T14:16:59.822Z,20.70
2023-05-14T14:19:26.450Z,20.70
2023-05-14T14:21:53.331Z,20.70
2023-05-14T14:24:20.216Z,20.70
2023-05-14T14:26:46.819Z,20.70
2023-05-14T14:29:13.523Z,20.70
2023-05-14T14:31:40.173Z,20.70
2023-05-14T14:34:06.852Z,20.70
2023-05-14T14:36:33.499Z,20.70
2023-05-14T14:39:00.166Z,20.80
2023-05-14T14:41:27.342Z,20.80
2023-05-14T14:43:54.017Z,20.70
2023-05-14T14:46:20.738Z,20.70
2023-05-14T14:48:47.448Z,20.70
2023-05-14T14:51:14.227Z,20.70
2023-05-14T14:53:41.223Z,20.80
2023-05-14T14:56:07.980Z,20.80
2023-05-14T14:58:34.815Z,20.80
2023-05-14T15:01:01.618Z,20.80
2023-05-14T15:03:28.935Z,20.90
2023-05-14T15:05:55.830Z,20.80
2023-05-14T15:08:27.331Z,20.70
2023-05-14T15:10:55.454Z,20.80
2023-05-14T15:13:22.473Z,20.90
2023-05-14T15:15:51.154Z,20.90
2023-05-14T15:18:17.895Z,20.90
2023-05-14T15:20:44.761Z,20.80
2023-05-14T15:23:11.927Z,20.90
2023-05-14T15:25:38.828Z,21.10
2023-05-14T15:28:07.459Z,21.10
2023-05-14T15:30:34.545Z,21.00
2023-05-14T15:33:01.418Z,20.90
2023-05-14T15:35:28.198Z,20.90
2023-05-14T15:37:57.169Z,20.90
2023-05-14T15:40:24.061Z,20.90
2023-05-14T15:42:50.909Z,20.90
2023-05-14T15:45:17.676Z,20.90
2023-05-14T15:47:45.170Z,20.80
2023-05-14T15:50:12.020Z,20.80
2023-05-14T15:52:39.326Z,20.80
2023-05-14T15:55:06.674Z,20.80
2023-05-14T15:57:33.879Z,20.80
2023-05-14T16:00:00.581Z,20.90
2023-05-14T16:02:33.039Z,20.80
2023-05-14T16:04:59.933Z,20.80
2023-05-14T16:07:26.638Z,20.80
2023-05-14T16:09:53.442Z,20.90
2023-05-14T16:12:20.168Z,20.80
2023-05-14T16:14:46.869Z,20.80
2023-05-14T16:17:13.631Z,20.80
2023-05-14T16:19:40.457Z,20.90
2023-05-14T16:22:07.424Z,20.90
2023-05-14T16:24:34.173Z,20.90
2023-05-14T16:27:00.984Z,20.90
2023-05-14T16:29:27.978Z,20.90
2023-05-14T16:31:54.900Z,20.90
2023-05-14T16:34:21.629Z,20.90
2023-05-14T16:36:48.362Z,20.90
2023-05-14T16:39:15.283Z,20.90
2023-05-14T16:41:41.885Z,20.90
2023-05-14T16:44:08.790Z,20.90
2023-05-14T16:46:35.639Z,20.90
2023-05-14T16:49:02.497Z,20.90
2023-05-14T16:51:29.318Z,20.90
2023-05-14T16:53:55.956Z,20.90
2023-05-14T16:56:22.719Z,20.90
2023-05-14T16:58:49.617Z,20.90
2023-05-14T17:01:16.359Z,20.90
2023-05-14T17:03:44.668Z,20.90
2023-05-14T17:06:11.312Z,21.00
2023-05-14T17:08:38.017Z,20.90
2023-05-14T17:11:05.836Z,20.90
2023-05-14T17:13:33.682Z,20.90
2023-05-14T17:16:00.840Z,20.90
2023-05-14T17:18:27.822Z,20.90
2023-05-14T17:20:54.518Z,20.90
2023-05-14T17:23:21.264Z,20.90
2023-05-14T17:25:47.961Z,20.90
2023-05-14T17:28:14.699Z,20.90
2023-05-14T17:30:41.474Z,20.90
2023-05-14T17:33:08.344Z,21.00
2023-05-14T17:35:37.166Z,20.90
2023-05-14T17:38:03.877Z,20.90
2023-05-14T17:40:30.536Z,20.90
2023-05-14T17:42:57.355Z,20.90
2023-05-14T17:45:24.407Z,20.90
2023-05-14T17:47:51.468Z,20.90
2023-05-14T17:50:18.749Z,21.00
2023-05-14T17:52:46.068Z,20.90
2023-05-14T17:55:12.900Z,20.90
2023-05-14T17:57:39.828Z,20.90
2023-05-14T18:00:07.456Z,21.00
2023-05-14T18:02:37.519Z,21.00
2023-05-14T18:05:04.351Z,20.90
2023-05-14T18:07:31.057Z,20.90
2023-05-14T18:09:57.948Z,20.90
2023-05-14T18:12:27.779Z,20.90
2023-05-14T18:14:54.511Z,21.00
2023-05-14T18:17:21.529Z,21.00
2023-05-14T18:19:48.414Z,21.00
2023-05-14T18:22:15.552Z,21.00
2023-05-14T18:24:44.090Z,20.90
2023-05-14T18:27:10.998Z,21.00
2023-05-14T18:29:37.732Z,21.00
2023-05-14T18:32:05.037Z,21.00
2023-05-14T18:34:31.620Z,21.00
2023-05-14T18:36:58.402Z,21.10
2023-05-14T18:39:25.009Z,21.00
2023-05-14T18:41:51.984Z,21.00
2023-05-14T18:44:18.753Z,21.10
2023-05-14T18:46:45.526Z,21.00
2023-05-14T18:49:12.229Z,21.00
2023-05-14T18:51:38.824Z,21.10
2023-05-14T18:54:05.569Z,21.10
2023-05-14T18:56:32.318Z,21.10
2023-05-14T18:58:58.934Z,21.00
2023-05-14T19:01:25.780Z,21.10
2023-05-14T19:03:53.090Z,21.10
2023-05-14T19:06:19.876Z,21.10
2023-05-14T19:08:46.744Z,21.10
2023-05-14T19:11:13.464Z,21.00
2023-05-14T19:13:40.121Z,21.10
2023-05-14T19:16:06.858Z,21.10
2023-05-14T19:18:33.951Z,21.10
2023-05-14T19:21:00.570Z,21.10
2023-05-14T19:23:27.261Z,21.20
2023-05-14T19:25:53.962Z,21.20
2023-05-14T19:28:21.278Z,21.20
2023-05-14T19:30:50.567Z,21.20
2023-05-14T19:33:17.717Z,21.10
2023-05-14T19:35:44.379Z,21.20
2023-05-14T19:38:11.171Z,21.20
2023-05-14T19:40:37.809Z,21.10
2023-05-14T19:43:04.404Z,21.10
2023-05-14T19:45:31.021Z,21.10
2023-05-14T19:47:58.081Z,21.10
2023-05-14T19:50:24.830Z,21.10
2023-05-14T19:52:51.614Z,21.10
2023-05-14T19:55:18.301Z,21.00
2023-05-14T19:57:44.876Z,21.00
2023-05-14T20:00:11.964Z,21.10
2023-05-14T20:02:41.925Z,21.10
2023-05-14T20:05:09.152Z,21.00
2023-05-14T20:07:37.156Z,21.00
2023-05-14T20:10:05.187Z,21.10
2023-05-14T20:12:31.789Z,21.10
2023-05-14T20:14:58.513Z,21.10
2023-05-14T20:17:25.426Z,21.10
2023-05-14T20:19:52.201Z,21.00
2023-05-14T20:22:18.841Z,21.00
2023-05-14T20:24:45.524Z,21.00
2023-05-14T20:27:12.243Z,21.00
2023-05-14T20:29:38.848Z,20.90
2023-05-14T20:32:06.160Z,20.90
2023-05-14T20:34:35.036Z,20.90
2023-05-14T20:37:01.819Z,20.90
2023-05-14T20:39:28.436Z,20.90
2023-05-14T20:41:55.152Z,20.90
2023-05-14T20:44:21.845Z,20.90
2023-05-14T20:46:48.763Z,20.90
2023-05-14T20:49:15.582Z,20.80
2023-05-14T20:51:42.261Z,20.80
2023-05-14T20:54:08.874Z,20.80
2023-05-14T20:56:36.459Z,20.70
2023-05-14T20:59:05.985Z,20.70
2023-05-14T21:01:32.636Z,20.70
2023-05-14T21:03:59.573Z,20.60
2023-05-14T21:06:26.391Z,20.60
2023-05-14T21:08:53.012Z,20.60
2023-05-14T21:11:21.223Z,20.60
2023-05-14T21:13:49.013Z,20.60
2023-05-14T21:16:15.720Z,20.60
2023-05-14T21:18:42.501Z,20.60
2023-05-14T21:21:09.167Z,20.60
2023-05-14T21:23:36.120Z,20.70
2023-05-14T21:26:02.761Z,20.60
2023-05-14T21:28:29.346Z,20.60
2023-05-14T21:30:55.954Z,20.50
2023-05-14T21:33:23.611Z,20.50
2023-05-14T21:35:50.382Z,20.50
2023-05-14T21:38:17.074Z,20.40
2023-05-14T21:40:43.668Z,20.40
2023-05-14T21:43:10.418Z,20.40
2023-05-14T21:45:37.118Z,20.30
2023-05-14T21:48:03.945Z,20.30
2023-05-14T21:50:30.721Z,20.30
2023-05-14T21:52:57.378Z,20.30
2023-05-14T21:55:24.134Z,20.30
2023-05-14T21:57:51.338Z,20.20
2023-05-14T22:00:23.199Z,20.20
2023-05-14T22:02:53.428Z,20.20
2023-05-14T22:05:20.823Z,20.20
2023-05-14T22:07:47.916Z,20.20
2023-05-14T22:10:15.657Z,20.20
2023-05-14T22:12:43.804Z,20.10
2023-05-14T22:15:11.799Z,20.10
2023-05-14T22:17:38.825Z,20.10
2023-05-14T22:20:06.950Z,20.00
2023-05-14T22:22:33.943Z,20.00
2023-05-14T22:25:00.781Z,20.00
2023-05-14T22:27:27.386Z,20.00
2023-05-14T22:29:55.122Z,20.00
2023-05-14T22:32:21.905Z,20.10
2023-05-14T22:34:48.570Z,20.00
2023-05-14T22:37:15.574Z,19.90
2023-05-14T22:39:42.883Z,19.90
2023-05-14T22:42:09.649Z,20.00
2023-05-14T22:44:36.972Z,20.00
2023-05-14T22:47:07.330Z,20.00
2023-05-14T22:49:33.937Z,19.90
2023-05-14T22:52:01.219Z,19.90
2023-05-14T22:54:27.838Z,19.90
2023-05-14T22:56:54.497Z,19.90
2023-05-14T22:59:22.859Z,19.90
2023-05-14T23:01:50.721Z,19.90
2023-05-14T23:04:17.474Z,19.90
2023-05-14T23:06:44.356Z,19.80
2023-05-14T23:09:10.956Z,19.80
2023-05-14T23:11:37.874Z,19.90
2023-05-14T23:14:04.486Z,19.80
2023-05-14T23:16:31.782Z,19.80
2023-05-14T23:18:58.581Z,19.80
2023-05-14T23:21:25.493Z,19.70
2023-05-14T23:23:52.134Z,19.70
2023-05-14T23:26:18.783Z,19.70
2023-05-14T23:28:47.150Z,19.70
2023-05-14T23:31:13.895Z,19.70
2023-05-14T23:33:40.659Z,19.70
2023-05-14T23:36:07.874Z,19.70
2023-05-14T23:38:34.559Z,19.60
2023-05-14T23:41:01.164Z,19.60
2023-05-14T23:43:27.830Z,19.60
2023-05-14T23:45:54.566Z,19.60
2023-05-14T23:48:21.161Z,19.50
2023-05-14T23:50:47.773Z,19.60
2023-05-14T23:53:14.368Z,19.60
2023-05-14T23:55:41.018Z,19.50
2023-05-14T23:58:07.707Z,19.40
